createdAt,value
2019-01-13T00:00:54.707Z,44.40
2019-01-13T00:05:58.423Z,44.60
2019-01-13T00:11:02.153Z,44.60
2019-01-13T00:16:05.913Z,44.30
2019-01-13T00:21:09.736Z,44.20
2019-01-13T00:26:13.516Z,43.90
2019-01-13T00:31:17.440Z,43.90
2019-01-13T00:36:21.341Z,43.80
2019-01-13T00:41:25.049Z,43.50
2019-01-13T00:46:28.771Z,43.40
2019-01-13T00:51:32.753Z,43.90
2019-01-13T00:56:36.721Z,43.10
2019-01-13T01:01:40.408Z,43.10
2019-01-13T01:06:44.104Z,42.90
2019-01-13T01:11:47.872Z,42.80
2019-01-13T01:16:51.698Z,42.70
2019-01-13T01:21:55.621Z,42.70
2019-01-13T01:26:59.589Z,43.20
2019-01-13T01:32:03.319Z,42.70
2019-01-13T01:37:06.999Z,42.90
2019-01-13T01:42:10.833Z,42.80
2019-01-13T01:47:14.609Z,42.90
2019-01-13T01:52:18.306Z,42.90
2019-01-13T01:57:22.031Z,42.70
2019-01-13T02:02:25.798Z,42.60
2019-01-13T02:07:29.496Z,42.80
2019-01-13T02:12:33.237Z,42.60
2019-01-13T02:17:36.861Z,42.60
2019-01-13T02:22:40.542Z,42.70
2019-01-13T02:27:44.263Z,43.20
2019-01-13T02:32:47.982Z,42.60
2019-01-13T02:37:51.723Z,42.60
2019-01-13T02:42:55.400Z,42.60
2019-01-13T02:47:59.127Z,42.60
2019-01-13T02:53:02.794Z,42.60
2019-01-13T02:58:06.577Z,42.80
2019-01-13T03:03:10.362Z,42.50
2019-01-13T03:08:14.220Z,42.60
2019-01-13T03:13:17.857Z,42.40
2019-01-13T03:18:23.404Z,42.30
2019-01-13T03:23:27.084Z,42.60
2019-01-13T03:28:30.844Z,42.30
2019-01-13T03:33:34.647Z,42.40
2019-01-13T03:38:38.453Z,42.20
2019-01-13T03:43:42.136Z,42.30
2019-01-13T03:48:45.824Z,42.30
2019-01-13T03:53:49.550Z,42.10
2019-01-13T03:58:53.272Z,42.10
2019-01-13T04:03:56.931Z,42.10
2019-01-13T04:09:00.586Z,42.10
2019-01-13T04:14:04.269Z,42.20
2019-01-13T04:19:07.961Z,42.00
2019-01-13T04:24:15.690Z,42.00
2019-01-13T04:29:19.394Z,41.80
2019-01-13T04:34:23.099Z,41.90
2019-01-13T04:39:26.833Z,42.10
2019-01-13T04:44:30.524Z,41.80
2019-01-13T04:49:34.256Z,41.90
2019-01-13T04:54:37.923Z,42.10
2019-01-13T04:59:41.601Z,42.10
2019-01-13T05:04:45.339Z,41.90
2019-01-13T05:09:49.060Z,41.90
2019-01-13T05:14:52.731Z,41.60
2019-01-13T05:19:56.460Z,41.80
2019-01-13T05:25:00.230Z,41.70
2019-01-13T05:30:05.363Z,41.70
2019-01-13T05:35:09.203Z,41.70
2019-01-13T05:40:15.168Z,41.70
2019-01-13T05:45:20.011Z,41.70
2019-01-13T05:50:23.758Z,41.80
2019-01-13T05:55:27.606Z,41.80
2019-01-13T06:00:39.776Z,41.90
2019-01-13T06:05:43.491Z,41.80
2019-01-13T06:10:47.229Z,41.80
2019-01-13T06:15:50.925Z,41.80
2019-01-13T06:20:54.606Z,41.80
2019-01-13T06:25:58.322Z,41.80
2019-01-13T06:31:02.070Z,41.80
2019-01-13T06:36:05.707Z,41.70
2019-01-13T06:41:09.540Z,41.80
2019-01-13T06:46:14.531Z,41.70
2019-01-13T06:51:18.339Z,41.60
2019-01-13T06:56:22.005Z,41.70
2019-01-13T07:01:25.713Z,41.70
2019-01-13T07:06:29.381Z,41.70
2019-01-13T07:11:33.379Z,41.60
2019-01-13T07:16:37.123Z,41.60
2019-01-13T07:21:40.785Z,41.60
2019-01-13T07:26:44.641Z,41.70
2019-01-13T07:31:48.444Z,41.50
2019-01-13T07:36:52.135Z,41.50
2019-01-13T07:41:55.891Z,41.50
2019-01-13T07:46:59.818Z,41.50
2019-01-13T07:52:03.683Z,41.40
2019-01-13T07:57:07.400Z,41.50
2019-01-13T08:02:17.666Z,41.30
2019-01-13T08:07:17.021Z,41.40
2019-01-13T08:12:20.894Z,41.30
2019-01-13T08:17:25.292Z,41.30
2019-01-13T08:22:29.085Z,41.20
2019-01-13T08:27:32.896Z,41.20
2019-01-13T08:32:36.617Z,41.10
2019-01-13T08:37:40.319Z,41.00
2019-01-13T08:42:44.471Z,41.10
2019-01-13T08:47:48.219Z,41.10
2019-01-13T08:52:51.994Z,41.00
2019-01-13T08:57:55.724Z,41.00
2019-01-13T09:02:59.488Z,40.90
2019-01-13T09:08:03.610Z,41.00
2019-01-13T09:13:07.509Z,41.00
2019-01-13T09:18:11.583Z,40.90
2019-01-13T09:23:15.529Z,40.90
2019-01-13T09:28:19.295Z,40.80
2019-01-13T09:33:23.446Z,41.50
2019-01-13T09:38:30.672Z,40.90
2019-01-13T09:43:34.385Z,40.70
2019-01-13T09:48:38.190Z,40.70
2019-01-13T09:53:42.412Z,40.80
2019-01-13T09:58:46.398Z,40.80
2019-01-13T10:03:50.506Z,40.80
2019-01-13T10:08:54.202Z,40.80
2019-01-13T10:13:58.128Z,40.70
2019-01-13T10:19:02.325Z,40.60
2019-01-13T10:24:06.100Z,40.60
2019-01-13T10:29:09.956Z,40.60
2019-01-13T10:34:13.612Z,40.60
2019-01-13T10:39:17.490Z,40.70
2019-01-13T10:44:21.244Z,40.50
2019-01-13T10:49:24.920Z,38.40
2019-01-13T10:54:28.726Z,39.30
2019-01-13T10:59:32.461Z,39.80
2019-01-13T11:04:36.489Z,39.70
2019-01-13T11:09:40.282Z,39.70
2019-01-13T11:14:43.993Z,40.00
2019-01-13T11:19:47.856Z,40.20
2019-01-13T11:24:51.572Z,40.40
2019-01-13T11:29:55.319Z,40.50
2019-01-13T11:34:59.136Z,40.60
2019-01-13T11:40:02.971Z,40.80
2019-01-13T11:45:07.763Z,40.90
2019-01-13T11:50:14.101Z,41.10
2019-01-13T11:55:21.491Z,41.20
2019-01-13T12:00:36.508Z,41.30
2019-01-13T12:05:40.231Z,41.30
2019-01-13T12:10:43.992Z,41.40
2019-01-13T12:15:47.663Z,41.40
2019-01-13T12:20:51.420Z,41.50
2019-01-13T12:25:55.184Z,41.70
2019-01-13T12:30:58.901Z,41.70
2019-01-13T12:36:03.101Z,41.80
2019-01-13T12:41:06.980Z,41.90
2019-01-13T12:46:11.587Z,41.90
2019-01-13T12:51:15.853Z,42.30
2019-01-13T12:56:19.638Z,42.20
2019-01-13T13:01:23.373Z,42.50
2019-01-13T13:06:27.131Z,42.50
2019-01-13T13:11:30.968Z,42.20
2019-01-13T13:16:34.956Z,42.00
2019-01-13T13:21:38.690Z,42.10
2019-01-13T13:26:42.420Z,42.10
2019-01-13T13:31:46.245Z,42.10
2019-01-13T13:36:49.956Z,42.20
2019-01-13T13:41:53.708Z,42.20
2019-01-13T13:46:57.498Z,42.10
2019-01-13T13:52:01.236Z,42.20
2019-01-13T13:57:04.968Z,42.50
2019-01-13T14:02:08.745Z,43.00
2019-01-13T14:07:12.522Z,42.70
2019-01-13T14:12:16.225Z,42.40
2019-01-13T14:17:20.059Z,42.60
2019-01-13T14:22:23.871Z,42.50
2019-01-13T14:27:27.706Z,42.50
2019-01-13T14:32:31.562Z,42.70
2019-01-13T14:37:35.324Z,42.50
2019-01-13T14:42:39.068Z,42.30
2019-01-13T14:47:42.882Z,42.10
2019-01-13T14:52:46.987Z,42.20
2019-01-13T14:57:50.845Z,42.00
2019-01-13T15:02:54.607Z,41.90
2019-01-13T15:07:58.403Z,41.90
2019-01-13T15:13:02.523Z,41.80
2019-01-13T15:18:06.624Z,41.80
2019-01-13T15:23:10.572Z,41.90
2019-01-13T15:28:14.484Z,42.10
2019-01-13T15:33:18.420Z,42.00
2019-01-13T15:38:22.239Z,42.30
2019-01-13T15:43:25.988Z,42.30
2019-01-13T15:48:29.934Z,42.50
2019-01-13T15:53:33.717Z,43.00
2019-01-13T15:58:37.449Z,43.10
2019-01-13T16:03:41.280Z,42.80
2019-01-13T16:08:45.274Z,42.80
2019-01-13T16:13:49.721Z,44.00
2019-01-13T16:18:53.471Z,43.60
2019-01-13T16:23:57.170Z,44.10
2019-01-13T16:29:00.873Z,45.10
2019-01-13T16:34:04.842Z,44.00
2019-01-13T16:39:08.926Z,43.80
2019-01-13T16:44:12.776Z,44.90
2019-01-13T16:49:16.515Z,44.40
2019-01-13T16:54:20.342Z,44.20
2019-01-13T16:59:24.159Z,44.30
2019-01-13T17:04:28.917Z,44.90
2019-01-13T17:09:33.024Z,44.60
2019-01-13T17:14:36.771Z,44.30
2019-01-13T17:19:40.677Z,44.00
2019-01-13T17:24:44.414Z,44.20
2019-01-13T17:29:48.189Z,44.10
2019-01-13T17:34:52.011Z,44.10
2019-01-13T17:39:55.968Z,43.90
2019-01-13T17:44:59.718Z,44.00
2019-01-13T17:50:04.686Z,44.00
2019-01-13T17:55:10.825Z,43.90
2019-01-13T18:00:20.654Z,44.00
2019-01-13T18:05:24.407Z,43.60
2019-01-13T18:10:28.253Z,44.10
2019-01-13T18:15:32.435Z,43.40
2019-01-13T18:20:36.167Z,43.90
2019-01-13T18:25:40.000Z,43.40
2019-01-13T18:30:43.857Z,43.40
2019-01-13T18:35:47.607Z,43.20
2019-01-13T18:40:51.411Z,43.20
2019-01-13T18:45:55.307Z,43.00
2019-01-13T18:50:59.419Z,42.90
2019-01-13T18:56:03.171Z,42.80
2019-01-13T19:01:07.062Z,42.90
2019-01-13T19:06:10.943Z,42.80
2019-01-13T19:11:30.520Z,42.70
2019-01-13T19:16:40.133Z,42.70
2019-01-13T19:21:43.934Z,42.50
2019-01-13T19:26:47.762Z,43.00
2019-01-13T19:31:51.652Z,43.30
2019-01-13T19:36:55.597Z,43.30
2019-01-13T19:41:59.462Z,43.30
2019-01-13T19:47:03.267Z,43.20
2019-01-13T19:52:07.229Z,43.90
2019-01-13T19:57:11.045Z,43.20
2019-01-13T20:02:14.812Z,43.60
2019-01-13T20:07:18.645Z,43.50
2019-01-13T20:12:22.511Z,43.60
2019-01-13T20:17:26.310Z,51.00
2019-01-13T20:22:30.109Z,52.30
2019-01-13T20:27:33.943Z,52.30
2019-01-13T20:32:38.784Z,51.10
2019-01-13T20:37:42.689Z,51.80
2019-01-13T20:42:46.541Z,50.30
2019-01-13T20:47:50.380Z,49.40
2019-01-13T20:52:54.233Z,48.50
2019-01-13T20:57:58.155Z,47.70
2019-01-13T21:03:02.324Z,46.90
2019-01-13T21:08:06.194Z,46.30
2019-01-13T21:13:10.657Z,46.00
2019-01-13T21:18:14.492Z,45.50
2019-01-13T21:23:18.258Z,45.40
2019-01-13T21:28:22.060Z,45.10
2019-01-13T21:33:25.877Z,45.00
2019-01-13T21:38:29.797Z,44.70
2019-01-13T21:43:33.645Z,44.40
2019-01-13T21:48:37.577Z,44.40
2019-01-13T21:53:41.343Z,44.30
2019-01-13T21:58:45.057Z,44.20
2019-01-13T22:03:48.830Z,44.00
2019-01-13T22:08:56.153Z,44.00
2019-01-13T22:13:58.104Z,43.90
2019-01-13T22:19:01.952Z,43.70
2019-01-13T22:24:05.720Z,43.60
2019-01-13T22:29:09.449Z,43.60
2019-01-13T22:34:13.261Z,43.50
2019-01-13T22:39:17.023Z,43.50
2019-01-13T22:44:20.764Z,43.40
2019-01-13T22:49:24.482Z,43.20
2019-01-13T22:54:28.280Z,43.70
2019-01-13T22:59:32.007Z,43.60
2019-01-13T23:04:35.785Z,43.50
2019-01-13T23:09:39.443Z,43.40
2019-01-13T23:14:43.240Z,43.40
2019-01-13T23:19:46.970Z,43.40
2019-01-13T23:24:50.697Z,43.20
2019-01-13T23:29:54.492Z,43.60
2019-01-13T23:34:58.348Z,43.90
2019-01-13T23:40:01.996Z,44.30
2019-01-13T23:45:05.807Z,44.40
2019-01-13T23:50:09.504Z,44.90
2019-01-13T23:55:13.254Z,45.50
